Gardiner, Iowa
Current Conditions -  °F | °C
As of 3:35 PM on Monday 24 Nov 2014 (Local Time) from KPRO Reporting Station
Overcast Overcast  
Wind Chill: 15°   Ceiling: 2300
Heat Index: 27°   Visibility: 10mi
Dew Point: 20°   Wind: 17mph
Humidity: 75%   Direction: 300°WNW
Pressure: 29.75"   Gusts: 25mph
Location:  41.8185°N, 93.9933°W
Report Text: KPRO 242135Z AUTO 30015G22KT 10SM OVC023 M03/M07 A2975 RMK AO2 T10271066
Loading
Personal Weather Stations






























Interactive Weather Map New forecast layout! Learn more

10-Day Weather Forecast

Advertisements
Track Severe Weather on mobile